Time;durP1;ratioP1;P1;durP2;ratioP2;P2;SDS_P1;SDS_P2;PMS_P1;PMS_P2;Temp;Humidity;BMP_temperature;BMP_pressure;BME280_temperature;BME280_humidity;BME280_pressure;Samples;Min_cycle;Max_cycle;Signal;HPM_P1;HPM_P2
2023/01/03 00:00:22;;;;;;;15.37;11.47;;;;;;;;;;5029830;28;20195;-80
2023/01/03 00:02:48;;;;;;;17.87;12.73;;;;;;;;;;5029158;28;20190;-79
2023/01/03 00:05:14;;;;;;;18.50;12.60;;;;;;;;;;5029754;28;20596;-80
2023/01/03 00:07:40;;;;;;;18.03;11.43;;;;;;;;;;5030888;28;20178;-81
2023/01/03 00:10:07;;;;;;;15.90;11.30;;;;;;;;;;5030508;28;20554;-78
2023/01/03 00:12:34;;;;;;;16.40;11.43;;;;;;;;;;5030005;28;20187;-79
2023/01/03 00:15:00;;;;;;;15.67;11.47;;;;;;;;;;5026202;28;20683;-79
2023/01/03 00:17:26;;;;;;;16.20;11.70;;;;;;;;;;5017600;28;20189;-81
2023/01/03 00:19:52;;;;;;;18.90;12.03;;;;;;;;;;5027188;28;20269;-79
2023/01/03 00:22:18;;;;;;;17.87;13.03;;;;;;;;;;5031908;28;20214;-80
2023/01/03 00:24:45;;;;;;;19.90;12.60;;;;;;;;;;5014088;28;20226;-80
2023/01/03 00:27:11;;;;;;;15.63;12.03;;;;;;;;;;5027357;28;20190;-79
2023/01/03 00:29:37;;;;;;;17.00;12.13;;;;;;;;;;5028931;28;20558;-81
2023/01/03 00:32:04;;;;;;;20.03;13.27;;;;;;;;;;5027465;28;20183;-81
2023/01/03 00:34:30;;;;;;;15.83;11.60;;;;;;;;;;5029711;28;20209;-80
2023/01/03 00:36:56;;;;;;;16.67;11.03;;;;;;;;;;5028350;28;20197;-80
2023/01/03 00:39:22;;;;;;;17.73;12.87;;;;;;;;;;5025096;28;20186;-78
2023/01/03 00:41:48;;;;;;;15.70;11.60;;;;;;;;;;5029271;28;20197;-81
2023/01/03 00:44:15;;;;;;;15.63;11.63;;;;;;;;;;5029383;28;20194;-80
2023/01/03 00:49:44;;;;;;;16.93;11.50;;;;;;;;;;5026359;28;20193;-80
2023/01/03 00:52:10;;;;;;;15.93;11.07;;;;;;;;;;5030401;28;20587;-80
2023/01/03 00:54:36;;;;;;;19.53;11.97;;;;;;;;;;5029569;28;20218;-81
2023/01/03 00:57:03;;;;;;;15.63;11.80;;;;;;;;;;5027440;28;20258;-80
2023/01/03 00:59:29;;;;;;;17.30;11.57;;;;;;;;;;5027734;28;20194;-80
2023/01/03 01:01:55;;;;;;;16.17;10.40;;;;;;;;;;5027438;28;20191;-81
2023/01/03 01:04:23;;;;;;;18.67;11.57;;;;;;;;;;5031158;28;20218;-78
2023/01/03 01:06:50;;;;;;;16.67;11.20;;;;;;;;;;5014090;28;20191;-79
2023/01/03 01:09:21;;;;;;;15.47;10.30;;;;;;;;;;5028322;28;20619;-81
2023/01/03 01:11:48;;;;;;;14.73;10.47;;;;;;;;;;5029942;28;20213;-80
2023/01/03 01:14:20;;;;;;;15.53;10.40;;;;;;;;;;5028221;28;20241;-80
2023/01/03 01:16:47;;;;;;;16.80;10.37;;;;;;;;;;5032914;28;20182;-78
2023/01/03 01:19:13;;;;;;;15.73;11.20;;;;;;;;;;5031112;28;20228;-79
2023/01/03 01:21:39;;;;;;;15.80;10.37;;;;;;;;;;5033146;28;20218;-80
2023/01/03 01:24:05;;;;;;;15.93;10.87;;;;;;;;;;5032618;28;20220;-79
2023/01/03 01:26:31;;;;;;;17.93;11.57;;;;;;;;;;5030726;28;20190;-80
2023/01/03 01:28:57;;;;;;;16.30;10.90;;;;;;;;;;5030809;28;20190;-80
2023/01/03 01:31:24;;;;;;;14.63;9.80;;;;;;;;;;5034068;28;20219;-79
2023/01/03 01:33:51;;;;;;;15.97;11.07;;;;;;;;;;5029720;28;20368;-80
2023/01/03 01:36:17;;;;;;;13.70;10.30;;;;;;;;;;5030696;28;20211;-79
2023/01/03 01:38:43;;;;;;;15.67;10.53;;;;;;;;;;5032613;28;20248;-79
2023/01/03 01:44:36;;;;;;;14.77;10.03;;;;;;;;;;5032399;28;20193;-83
2023/01/03 01:46:50;;;;;;;17.03;10.40;;;;;;;;;;5032214;28;20185;-79
2023/01/03 01:49:20;;;;;;;16.23;10.17;;;;;;;;;;5033251;28;20607;-80
2023/01/03 01:51:47;;;;;;;15.67;10.70;;;;;;;;;;5030869;28;20186;-80
2023/01/03 01:54:13;;;;;;;19.17;10.93;;;;;;;;;;5028611;28;20223;-80
2023/01/03 01:56:47;;;;;;;20.93;10.77;;;;;;;;;;5020873;28;20547;-80
2023/01/03 01:59:14;;;;;;;18.60;11.03;;;;;;;;;;5031398;28;20188;-79
2023/01/03 02:01:40;;;;;;;17.77;11.37;;;;;;;;;;5033382;28;20178;-80
2023/01/03 02:04:09;;;;;;;18.10;11.33;;;;;;;;;;5032456;28;20188;-79
2023/01/03 02:06:36;;;;;;;17.13;10.87;;;;;;;;;;5028623;28;20214;-80
2023/01/03 02:09:02;;;;;;;15.47;10.73;;;;;;;;;;5022984;28;20187;-79
2023/01/03 02:11:37;;;;;;;16.10;11.43;;;;;;;;;;5030936;28;20209;-80
2023/01/03 02:14:12;;;;;;;19.63;12.17;;;;;;;;;;5030485;28;20248;-79
2023/01/03 02:16:57;;;;;;;15.93;10.40;;;;;;;;;;5029844;28;20174;-80
2023/01/03 02:19:41;;;;;;;14.10;10.63;;;;;;;;;;5032143;28;20655;-80
2023/01/03 02:22:07;;;;;;;19.30;11.73;;;;;;;;;;5028593;28;20187;-80
2023/01/03 02:24:33;;;;;;;17.93;11.57;;;;;;;;;;5016384;28;20190;-80
2023/01/03 02:30:06;;;;;;;15.13;10.90;;;;;;;;;;5028768;28;20565;-81
2023/01/03 02:32:35;;;;;;;14.17;9.93;;;;;;;;;;5031299;28;20183;-79
2023/01/03 02:35:01;;;;;;;18.63;10.93;;;;;;;;;;5029438;28;20224;-80
2023/01/03 02:37:30;;;;;;;20.87;10.97;;;;;;;;;;5046632;28;20174;-79
2023/01/03 02:40:07;;;;;;;14.20;10.37;;;;;;;;;;5030737;28;20192;-79
2023/01/03 02:42:57;;;;;;;18.97;11.43;;;;;;;;;;5030789;28;20182;-80
2023/01/03 02:45:41;;;;;;;12.00;9.87;;;;;;;;;;5044410;28;20187;-80
2023/01/03 02:48:10;;;;;;;17.80;10.43;;;;;;;;;;5030977;28;20591;-80
2023/01/03 02:50:41;;;;;;;15.93;10.30;;;;;;;;;;5030031;28;20186;-80
2023/01/03 02:53:09;;;;;;;17.70;10.37;;;;;;;;;;5029343;28;20297;-78
2023/01/03 02:55:36;;;;;;;14.07;9.33;;;;;;;;;;5032851;28;20175;-78
2023/01/03 02:58:06;;;;;;;16.83;9.77;;;;;;;;;;5024238;28;20194;-79
2023/01/03 03:00:33;;;;;;;16.43;9.83;;;;;;;;;;5031003;28;21035;-80
2023/01/03 03:03:05;;;;;;;12.77;9.83;;;;;;;;;;5031311;28;20190;-79
2023/01/03 03:05:35;;;;;;;14.77;9.53;;;;;;;;;;5031286;28;20264;-80
2023/01/03 03:08:01;;;;;;;14.27;9.60;;;;;;;;;;5028818;28;20188;-80
2023/01/03 03:13:29;;;;;;;13.17;9.23;;;;;;;;;;5029752;28;20189;-79
2023/01/03 03:15:58;;;;;;;13.30;9.70;;;;;;;;;;5027124;28;20195;-82
2023/01/03 03:18:33;;;;;;;13.77;9.20;;;;;;;;;;5024156;28;20725;-77
2023/01/03 03:26:35;;;;;;;14.80;8.83;;;;;;;;;;5031232;28;20607;-80
2023/01/03 03:29:04;;;;;;;12.00;9.23;;;;;;;;;;5028990;28;20182;-79
2023/01/03 03:31:31;;;;;;;14.50;9.67;;;;;;;;;;5030990;28;20260;-78
2023/01/03 03:33:58;;;;;;;11.13;8.97;;;;;;;;;;5028789;28;20225;-81
2023/01/03 03:36:32;;;;;;;17.23;9.93;;;;;;;;;;5029824;28;20202;-80
2023/01/03 03:38:59;;;;;;;15.67;9.23;;;;;;;;;;5030975;28;20191;-80
2023/01/03 03:44:59;;;;;;;13.90;8.53;;;;;;;;;;5015787;28;20193;-79
2023/01/03 03:47:47;;;;;;;13.23;7.77;;;;;;;;;;5015537;28;20272;-80
2023/01/03 03:50:31;;;;;;;11.13;7.70;;;;;;;;;;5011596;28;20186;-80
2023/01/03 03:52:58;;;;;;;10.43;7.80;;;;;;;;;;5026905;28;20224;-80
2023/01/03 03:55:27;;;;;;;11.60;8.03;;;;;;;;;;5030361;28;20241;-80
2023/01/03 03:57:55;;;;;;;11.77;6.90;;;;;;;;;;5028760;28;20292;-78
2023/01/03 04:00:24;;;;;;;11.07;7.73;;;;;;;;;;5026438;28;20198;-78
2023/01/03 04:02:51;;;;;;;11.10;7.90;;;;;;;;;;5016996;28;20724;-80
2023/01/03 04:05:20;;;;;;;11.07;7.73;;;;;;;;;;5031063;28;20178;-81
2023/01/03 04:07:46;;;;;;;12.17;8.23;;;;;;;;;;5030507;28;20170;-80
2023/01/03 04:10:14;;;;;;;13.77;8.73;;;;;;;;;;5029442;28;20210;-80
2023/01/03 04:12:40;;;;;;;11.00;8.80;;;;;;;;;;5029621;28;20273;-80
2023/01/03 04:15:06;;;;;;;13.10;9.40;;;;;;;;;;5029549;28;20296;-80
2023/01/03 04:17:33;;;;;;;11.40;9.00;;;;;;;;;;5028304;28;20297;-80
2023/01/03 04:19:58;;;;;;;12.13;9.00;;;;;;;;;;5029038;28;20178;-80
2023/01/03 04:22:24;;;;;;;11.27;8.63;;;;;;;;;;5030072;28;20182;-80
2023/01/03 04:24:50;;;;;;;11.77;7.77;;;;;;;;;;5029282;28;20228;-79
2023/01/03 04:27:16;;;;;;;11.07;7.83;;;;;;;;;;5026172;28;20183;-79
2023/01/03 04:29:42;;;;;;;14.40;9.13;;;;;;;;;;5015325;28;20187;-79
2023/01/03 04:32:08;;;;;;;13.80;8.80;;;;;;;;;;5028405;28;20201;-80
2023/01/03 04:34:35;;;;;;;9.93;8.13;;;;;;;;;;5028908;28;20202;-78
2023/01/03 04:37:01;;;;;;;13.60;8.00;;;;;;;;;;5029195;28;20225;-80
2023/01/03 04:39:27;;;;;;;11.30;7.87;;;;;;;;;;5029238;28;20206;-79
2023/01/03 04:41:53;;;;;;;12.43;7.90;;;;;;;;;;5029499;28;20705;-79
2023/01/03 04:44:19;;;;;;;12.87;8.37;;;;;;;;;;5027395;28;20262;-79
2023/01/03 04:46:44;;;;;;;12.53;8.70;;;;;;;;;;5031778;28;20639;-79
2023/01/03 04:49:10;;;;;;;11.67;8.23;;;;;;;;;;5026001;28;20187;-79
2023/01/03 04:51:37;;;;;;;10.67;8.10;;;;;;;;;;5027617;28;20186;-80
2023/01/03 04:54:04;;;;;;;12.63;8.10;;;;;;;;;;5032940;28;20214;-81
2023/01/03 04:56:31;;;;;;;9.87;7.60;;;;;;;;;;5031109;28;20244;-80
2023/01/03 04:58:57;;;;;;;9.67;7.70;;;;;;;;;;5032989;28;20186;-80
2023/01/03 05:01:23;;;;;;;12.43;7.70;;;;;;;;;;5032428;28;20175;-81
2023/01/03 05:03:50;;;;;;;13.20;7.87;;;;;;;;;;5030135;28;20195;-78
2023/01/03 05:06:16;;;;;;;8.90;7.07;;;;;;;;;;5023879;28;20265;-81
2023/01/03 05:08:46;;;;;;;10.23;7.43;;;;;;;;;;5032605;28;20187;-80
2023/01/03 05:11:12;;;;;;;9.53;7.13;;;;;;;;;;5033727;28;20210;-80
2023/01/03 05:13:38;;;;;;;8.33;7.43;;;;;;;;;;5034144;28;20233;-79
2023/01/03 05:16:05;;;;;;;11.13;7.97;;;;;;;;;;5032965;28;20773;-79
2023/01/03 05:18:31;;;;;;;8.87;7.00;;;;;;;;;;5033109;28;20670;-80
2023/01/03 05:26:33;;;;;;;6.07;5.47;;;;;;;;;;5017312;28;20210;-79
2023/01/03 05:28:59;;;;;;;7.17;5.30;;;;;;;;;;5033549;28;20795;-78
2023/01/03 05:31:25;;;;;;;6.40;4.70;;;;;;;;;;5033256;28;20230;-79
2023/01/03 05:33:51;;;;;;;7.00;4.77;;;;;;;;;;5032355;28;20209;-79
2023/01/03 05:36:17;;;;;;;5.37;4.00;;;;;;;;;;5031741;28;20627;-79
2023/01/03 05:38:43;;;;;;;6.23;4.37;;;;;;;;;;5032099;28;20183;-78
2023/01/03 05:41:09;;;;;;;5.77;3.97;;;;;;;;;;5027927;28;20244;-79
2023/01/03 05:43:35;;;;;;;6.10;3.53;;;;;;;;;;5027532;28;20213;-79
2023/01/03 05:46:01;;;;;;;6.30;3.83;;;;;;;;;;5022234;28;20186;-81
2023/01/03 05:48:27;;;;;;;5.63;3.70;;;;;;;;;;5029079;28;20201;-80
2023/01/03 05:50:56;;;;;;;6.70;3.90;;;;;;;;;;5029164;28;20631;-78
2023/01/03 05:53:22;;;;;;;5.23;3.53;;;;;;;;;;5028097;28;20268;-80
2023/01/03 05:55:48;;;;;;;6.27;3.77;;;;;;;;;;5030336;28;20577;-80
2023/01/03 05:58:14;;;;;;;5.77;3.40;;;;;;;;;;5030065;28;20190;-79
2023/01/03 06:00:40;;;;;;;6.40;3.63;;;;;;;;;;5028420;28;20265;-77
2023/01/03 06:03:06;;;;;;;4.20;2.93;;;;;;;;;;5029821;28;20182;-79
2023/01/03 06:05:32;;;;;;;4.40;2.87;;;;;;;;;;5021987;28;20205;-77
2023/01/03 06:08:01;;;;;;;4.07;2.70;;;;;;;;;;5024413;28;20387;-78
2023/01/03 06:10:27;;;;;;;3.97;3.23;;;;;;;;;;5024431;28;20247;-78
2023/01/03 06:12:53;;;;;;;3.77;2.83;;;;;;;;;;5028649;28;20187;-79
2023/01/03 06:15:19;;;;;;;3.37;2.70;;;;;;;;;;5029085;28;22909;-79
2023/01/03 06:17:56;;;;;;;3.37;2.63;;;;;;;;;;5025816;28;20218;-79
2023/01/03 06:20:22;;;;;;;5.37;2.80;;;;;;;;;;5028040;28;20194;-79
2023/01/03 06:22:48;;;;;;;3.87;2.83;;;;;;;;;;5030020;28;20185;-79
2023/01/03 06:25:15;;;;;;;3.50;3.00;;;;;;;;;;5032471;28;20187;-81
2023/01/03 06:27:41;;;;;;;4.23;2.63;;;;;;;;;;5030589;28;20244;-78
2023/01/03 06:30:07;;;;;;;4.83;2.67;;;;;;;;;;5030343;28;20226;-78
2023/01/03 06:32:33;;;;;;;4.80;3.57;;;;;;;;;;5028752;28;20221;-79
2023/01/03 06:34:59;;;;;;;7.90;3.10;;;;;;;;;;5033313;28;20210;-80
2023/01/03 06:37:25;;;;;;;7.90;3.50;;;;;;;;;;5030379;28;20201;-80
2023/01/03 06:39:51;;;;;;;5.17;3.63;;;;;;;;;;5030002;28;20221;-79
2023/01/03 06:53:16;;;;;;;8.27;5.23;;;;;;;;;;5028103;28;20259;-78
2023/01/03 06:55:43;;;;;;;8.20;4.97;;;;;;;;;;5024389;28;20213;-78
2023/01/03 06:58:09;;;;;;;7.87;5.13;;;;;;;;;;5023527;28;20186;-79
2023/01/03 07:00:36;;;;;;;8.77;5.60;;;;;;;;;;5021370;28;20248;-79
2023/01/03 07:03:02;;;;;;;7.40;4.70;;;;;;;;;;5019902;28;20631;-79
2023/01/03 07:05:28;;;;;;;8.80;4.57;;;;;;;;;;5027118;28;20265;-78
2023/01/03 07:07:54;;;;;;;9.07;4.57;;;;;;;;;;5028911;28;20185;-79
2023/01/03 07:10:20;;;;;;;7.77;4.33;;;;;;;;;;5028294;28;20183;-78
2023/01/03 07:15:30;;;;;;;6.03;4.67;;;;;;;;;;5025785;28;20283;-77
2023/01/03 07:17:56;;;;;;;6.50;4.27;;;;;;;;;;5028176;28;20212;-79
2023/01/03 07:20:22;;;;;;;7.27;4.70;;;;;;;;;;5027283;28;20189;-79
2023/01/03 07:22:48;;;;;;;6.77;4.40;;;;;;;;;;5029516;28;20171;-79
2023/01/03 07:25:14;;;;;;;10.27;4.80;;;;;;;;;;5027014;28;20192;-78
2023/01/03 07:27:40;;;;;;;6.30;4.67;;;;;;;;;;5027713;28;20225;-78
2023/01/03 07:30:06;;;;;;;6.53;4.93;;;;;;;;;;5020784;28;20356;-78
2023/01/03 07:32:32;;;;;;;7.93;4.80;;;;;;;;;;5022669;28;20273;-78
2023/01/03 07:34:59;;;;;;;6.70;5.27;;;;;;;;;;5025695;28;20798;-79
2023/01/03 07:37:25;;;;;;;7.57;5.77;;;;;;;;;;5027463;28;20243;-78
2023/01/03 07:39:51;;;;;;;6.10;5.20;;;;;;;;;;5027581;28;20186;-78
2023/01/03 07:45:01;;;;;;;8.23;5.73;;;;;;;;;;5025886;28;20555;-79
2023/01/03 07:47:27;;;;;;;10.10;6.17;;;;;;;;;;5027914;28;20573;-80
2023/01/03 07:49:53;;;;;;;6.70;6.03;;;;;;;;;;5029287;28;20171;-78
2023/01/03 07:52:19;;;;;;;9.23;6.20;;;;;;;;;;5028348;28;20186;-79
2023/01/03 07:54:45;;;;;;;8.03;6.47;;;;;;;;;;5027888;28;20300;-80
2023/01/03 07:57:11;;;;;;;7.27;6.43;;;;;;;;;;5026422;28;20190;-79
2023/01/03 07:59:37;;;;;;;9.80;7.17;;;;;;;;;;5027280;28;20259;-79
2023/01/03 08:02:03;;;;;;;12.40;7.63;;;;;;;;;;5027851;28;20179;-79
2023/01/03 08:04:29;;;;;;;11.50;8.53;;;;;;;;;;5027682;28;20607;-80
2023/01/03 08:06:56;;;;;;;9.07;8.17;;;;;;;;;;5026766;28;20190;-79
2023/01/03 08:14:52;;;;;;;9.70;8.70;;;;;;;;;;5025071;28;20264;-79
2023/01/03 08:17:18;;;;;;;12.37;9.27;;;;;;;;;;5026368;28;20178;-80
2023/01/03 08:19:44;;;;;;;10.03;8.90;;;;;;;;;;5028379;28;20643;-79
2023/01/03 08:22:10;;;;;;;11.07;8.57;;;;;;;;;;5026201;28;20198;-80
2023/01/03 08:24:36;;;;;;;10.10;9.10;;;;;;;;;;5027319;28;20651;-79
2023/01/03 08:27:03;;;;;;;10.83;9.67;;;;;;;;;;5031106;28;20178;-80
2023/01/03 08:29:29;;;;;;;9.80;8.80;;;;;;;;;;5030199;28;20654;-79
2023/01/03 08:31:56;;;;;;;10.67;8.77;;;;;;;;;;5031565;28;20280;-79
2023/01/03 08:34:23;;;;;;;10.47;9.37;;;;;;;;;;5030857;28;20210;-80
2023/01/03 08:36:50;;;;;;;10.53;8.43;;;;;;;;;;5030883;28;20190;-79
2023/01/03 08:39:18;;;;;;;8.83;7.93;;;;;;;;;;5031376;28;20196;-80
2023/01/03 08:41:50;;;;;;;8.90;7.93;;;;;;;;;;5047736;28;20715;-79
2023/01/03 08:44:16;;;;;;;8.80;7.20;;;;;;;;;;5030928;28;20963;-80
2023/01/03 08:46:45;;;;;;;9.73;7.07;;;;;;;;;;5031285;28;20181;-78
2023/01/03 08:49:11;;;;;;;9.50;7.57;;;;;;;;;;5030663;28;20194;-78
2023/01/03 08:51:38;;;;;;;9.60;6.30;;;;;;;;;;5030026;28;20194;-79
2023/01/03 08:54:04;;;;;;;7.80;6.23;;;;;;;;;;5031724;28;20243;-78
2023/01/03 08:56:30;;;;;;;9.60;5.93;;;;;;;;;;5028332;28;20666;-77
2023/01/03 08:58:56;;;;;;;6.47;5.23;;;;;;;;;;5031292;28;20174;-79
2023/01/03 09:01:23;;;;;;;5.47;4.40;;;;;;;;;;5030818;28;20214;-79
2023/01/03 09:03:49;;;;;;;6.97;4.47;;;;;;;;;;5030568;28;20273;-77
2023/01/03 09:06:15;;;;;;;4.70;4.20;;;;;;;;;;5030796;28;20209;-78
2023/01/03 09:08:41;;;;;;;4.73;3.90;;;;;;;;;;5029796;28;20656;-79
2023/01/03 09:11:08;;;;;;;5.23;4.13;;;;;;;;;;5014513;28;20175;-79
2023/01/03 09:13:34;;;;;;;5.73;3.90;;;;;;;;;;5022645;28;20206;-78
2023/01/03 09:16:01;;;;;;;5.90;3.77;;;;;;;;;;5024288;28;20182;-78
2023/01/03 09:18:27;;;;;;;4.73;4.00;;;;;;;;;;5031593;28;20182;-77
2023/01/03 09:20:53;;;;;;;9.10;4.00;;;;;;;;;;5031394;28;20249;-79
2023/01/03 09:23:19;;;;;;;9.00;3.87;;;;;;;;;;5031500;28;20285;-79
2023/01/03 09:25:45;;;;;;;5.70;3.40;;;;;;;;;;5047964;28;20656;-78
2023/01/03 09:28:12;;;;;;;7.03;3.53;;;;;;;;;;5030742;28;20287;-80
2023/01/03 09:30:38;;;;;;;6.27;3.10;;;;;;;;;;5030603;28;20633;-79
2023/01/03 09:33:04;;;;;;;6.47;3.33;;;;;;;;;;5030169;28;20187;-78
2023/01/03 09:35:30;;;;;;;5.20;3.00;;;;;;;;;;5029883;28;20229;-77
2023/01/03 09:37:56;;;;;;;6.77;3.20;;;;;;;;;;5032044;28;20773;-78
2023/01/03 09:40:22;;;;;;;7.50;3.10;;;;;;;;;;5031147;28;20609;-79
2023/01/03 09:45:34;;;;;;;3.57;2.73;;;;;;;;;;5028895;28;20205;-78
2023/01/03 09:48:01;;;;;;;4.17;2.50;;;;;;;;;;5030568;28;20186;-79
2023/01/03 09:50:28;;;;;;;6.10;2.40;;;;;;;;;;5028784;28;20178;-79
2023/01/03 10:04:28;;;;;;;7.80;2.77;;;;;;;;;;5069183;28;20321;-80
2023/01/03 10:07:09;;;;;;;7.77;2.37;;;;;;;;;;5070880;28;20201;-79
2023/01/03 10:09:54;;;;;;;6.00;2.90;;;;;;;;;;5066140;28;20192;-78
2023/01/03 10:12:42;;;;;;;5.80;3.07;;;;;;;;;;5068301;28;20224;-79
2023/01/03 10:15:18;;;;;;;3.93;2.70;;;;;;;;;;5068534;28;20209;-79
2023/01/03 10:18:00;;;;;;;6.00;2.63;;;;;;;;;;5051586;28;20237;-79
2023/01/03 10:20:38;;;;;;;5.70;2.53;;;;;;;;;;5068955;28;20188;-79
2023/01/03 10:23:05;;;;;;;5.43;2.30;;;;;;;;;;5068964;28;20176;-80
2023/01/03 10:25:31;;;;;;;7.43;2.50;;;;;;;;;;5047914;28;20731;-79
2023/01/03 10:28:02;;;;;;;4.83;2.57;;;;;;;;;;5048877;28;20185;-79
2023/01/03 10:30:37;;;;;;;6.13;2.50;;;;;;;;;;5083740;28;20220;-79
2023/01/03 10:33:03;;;;;;;6.63;3.07;;;;;;;;;;5032045;28;20190;-79
2023/01/03 10:35:30;;;;;;;8.60;2.83;;;;;;;;;;5028900;28;20198;-80
2023/01/03 10:37:57;;;;;;;4.43;2.73;;;;;;;;;;5028457;28;20181;-79
2023/01/03 10:40:35;;;;;;;5.27;2.87;;;;;;;;;;5028722;28;20190;-78
2023/01/03 10:43:16;;;;;;;7.07;3.17;;;;;;;;;;5027057;28;20185;-78
2023/01/03 10:45:50;;;;;;;6.17;3.20;;;;;;;;;;5030265;28;20178;-78
2023/01/03 10:48:16;;;;;;;7.43;3.07;;;;;;;;;;5029057;28;20733;-79
2023/01/03 10:50:42;;;;;;;6.07;2.90;;;;;;;;;;5027577;28;20221;-79
2023/01/03 10:53:08;;;;;;;8.00;3.63;;;;;;;;;;5029586;28;20182;-79
2023/01/03 10:55:35;;;;;;;5.87;2.90;;;;;;;;;;5027873;28;20224;-81
2023/01/03 10:58:02;;;;;;;8.57;3.00;;;;;;;;;;5030035;28;20181;-78
2023/01/03 11:00:28;;;;;;;6.17;3.10;;;;;;;;;;5026200;28;20308;-78
2023/01/03 11:02:55;;;;;;;8.50;3.10;;;;;;;;;;5028073;28;21648;-79
2023/01/03 11:05:23;;;;;;;6.93;3.10;;;;;;;;;;5039459;28;20187;-78
2023/01/03 11:07:53;;;;;;;16.60;3.30;;;;;;;;;;5049782;28;20647;-79
2023/01/03 11:10:19;;;;;;;7.77;2.73;;;;;;;;;;5047546;28;20277;-78
2023/01/03 11:12:45;;;;;;;6.17;2.90;;;;;;;;;;5039235;28;20189;-79
2023/01/03 11:15:14;;;;;;;4.67;2.70;;;;;;;;;;5027765;28;20206;-79
2023/01/03 11:18:07;;;;;;;5.00;3.10;;;;;;;;;;5026459;28;20174;-79
2023/01/03 11:20:38;;;;;;;8.80;3.00;;;;;;;;;;5005680;28;20197;-79
2023/01/03 11:23:11;;;;;;;7.13;3.10;;;;;;;;;;4989462;28;20171;-79
2023/01/03 11:25:49;;;;;;;7.70;3.40;;;;;;;;;;4991311;28;20191;-78
2023/01/03 11:28:32;;;;;;;7.87;3.90;;;;;;;;;;5006084;28;20398;-78
2023/01/03 11:31:38;;;;;;;8.50;3.30;;;;;;;;;;4990098;28;20231;-78
2023/01/03 11:34:13;;;;;;;6.40;3.60;;;;;;;;;;4986670;28;20207;-78
2023/01/03 11:36:54;;;;;;;5.97;3.00;;;;;;;;;;4968979;28;20747;-78
2023/01/03 11:39:39;;;;;;;4.97;2.80;;;;;;;;;;4969622;28;20742;-78
2023/01/03 11:42:05;;;;;;;6.33;2.93;;;;;;;;;;4987450;28;20184;-79
2023/01/03 11:44:46;;;;;;;5.83;2.70;;;;;;;;;;4970463;28;20347;-79
2023/01/03 11:47:30;;;;;;;8.10;3.10;;;;;;;;;;4985684;28;20172;-78
2023/01/03 11:50:06;;;;;;;8.10;3.00;;;;;;;;;;4971965;28;20703;-78
2023/01/03 11:52:52;;;;;;;4.43;2.90;;;;;;;;;;4985820;28;20613;-79
2023/01/03 11:55:24;;;;;;;6.97;2.97;;;;;;;;;;4986072;28;20238;-79
2023/01/03 11:58:09;;;;;;;8.13;2.97;;;;;;;;;;4982921;28;20234;-80
2023/01/03 12:00:57;;;;;;;6.93;2.73;;;;;;;;;;5003366;28;20226;-79
2023/01/03 12:03:29;;;;;;;7.30;3.10;;;;;;;;;;4983894;28;20194;-79
2023/01/03 12:05:55;;;;;;;6.17;2.90;;;;;;;;;;5024304;28;20191;-79
2023/01/03 12:08:34;;;;;;;9.47;2.87;;;;;;;;;;5028307;28;20187;-79
2023/01/03 12:11:00;;;;;;;7.20;2.87;;;;;;;;;;5026808;28;20175;-79
2023/01/03 12:13:41;;;;;;;5.73;2.93;;;;;;;;;;5027418;28;20193;-79
2023/01/03 12:16:13;;;;;;;5.13;2.47;;;;;;;;;;5025706;28;20196;-79
2023/01/03 12:18:39;;;;;;;9.40;2.90;;;;;;;;;;5026485;28;20183;-79
2023/01/03 12:21:10;;;;;;;7.30;2.70;;;;;;;;;;5026851;28;20194;-79
2023/01/03 12:23:48;;;;;;;6.93;2.67;;;;;;;;;;5026536;28;20234;-78
2023/01/03 12:26:16;;;;;;;6.77;3.30;;;;;;;;;;5027397;28;20293;-79
2023/01/03 12:28:47;;;;;;;5.33;2.63;;;;;;;;;;5059961;28;20186;-79
2023/01/03 12:31:16;;;;;;;9.97;4.13;;;;;;;;;;5027067;28;20229;-78
2023/01/03 12:33:55;;;;;;;8.13;3.90;;;;;;;;;;5026241;28;20241;-78
2023/01/03 12:36:40;;;;;;;9.10;2.83;;;;;;;;;;5024856;28;20198;-79
2023/01/03 12:39:23;;;;;;;5.87;2.70;;;;;;;;;;5025588;28;20539;-79
2023/01/03 12:41:49;;;;;;;3.87;2.23;;;;;;;;;;5026596;28;20182;-78
2023/01/03 12:44:19;;;;;;;5.40;2.40;;;;;;;;;;5027338;28;20224;-78
2023/01/03 12:46:48;;;;;;;3.67;2.10;;;;;;;;;;5027352;28;20182;-78
2023/01/03 12:49:21;;;;;;;8.13;2.30;;;;;;;;;;5025464;28;20643;-79
2023/01/03 12:51:47;;;;;;;6.40;2.90;;;;;;;;;;5027306;28;20196;-78
2023/01/03 12:54:22;;;;;;;5.77;2.73;;;;;;;;;;5026260;28;20194;-78
2023/01/03 12:57:08;;;;;;;6.57;2.40;;;;;;;;;;5025195;28;20189;-79
2023/01/03 12:59:35;;;;;;;7.70;2.70;;;;;;;;;;5025232;28;20592;-78
2023/01/03 13:02:20;;;;;;;6.33;3.03;;;;;;;;;;5027202;28;20531;-79
2023/01/03 13:04:49;;;;;;;12.10;3.07;;;;;;;;;;5025625;28;20193;-79
2023/01/03 13:07:26;;;;;;;5.43;3.00;;;;;;;;;;5026253;28;20185;-79
2023/01/03 13:09:54;;;;;;;5.23;3.33;;;;;;;;;;5024851;28;20182;-80
2023/01/03 13:12:21;;;;;;;7.67;3.00;;;;;;;;;;5029736;28;20651;-78
2023/01/03 13:14:55;;;;;;;8.90;4.07;;;;;;;;;;5031323;28;20237;-78
2023/01/03 13:17:24;;;;;;;9.43;3.23;;;;;;;;;;5029460;28;20182;-79
2023/01/03 13:19:55;;;;;;;9.60;3.97;;;;;;;;;;5030363;28;20662;-80
2023/01/03 13:22:35;;;;;;;7.80;4.00;;;;;;;;;;5027737;28;20228;-78
2023/01/03 13:25:19;;;;;;;7.67;3.97;;;;;;;;;;5028056;28;20193;-79
2023/01/03 13:27:50;;;;;;;5.53;3.50;;;;;;;;;;5028844;28;20243;-79
2023/01/03 13:30:29;;;;;;;8.57;4.23;;;;;;;;;;5029597;28;21578;-79
2023/01/03 13:32:56;;;;;;;10.10;4.97;;;;;;;;;;5026385;28;20190;-79
2023/01/03 13:35:55;;;;;;;8.93;4.70;;;;;;;;;;5029607;28;20230;-78
2023/01/03 13:38:21;;;;;;;10.30;5.07;;;;;;;;;;5012212;28;20198;-78
2023/01/03 13:40:47;;;;;;;6.40;4.17;;;;;;;;;;5030368;28;20269;-78
2023/01/03 13:43:15;;;;;;;7.47;4.17;;;;;;;;;;5015575;28;20182;-79
2023/01/03 13:45:41;;;;;;;10.03;3.93;;;;;;;;;;5010673;28;20309;-79
2023/01/03 13:48:27;;;;;;;6.30;4.17;;;;;;;;;;5011558;28;20246;-79
2023/01/03 13:51:13;;;;;;;6.73;4.10;;;;;;;;;;5014085;28;20190;-79
2023/01/03 13:53:51;;;;;;;11.57;4.10;;;;;;;;;;5013305;28;20277;-79
2023/01/03 13:56:17;;;;;;;7.30;3.70;;;;;;;;;;5029360;28;20689;-79
2023/01/03 13:58:44;;;;;;;8.83;4.70;;;;;;;;;;5029797;28;20789;-79
2023/01/03 14:01:22;;;;;;;9.73;4.53;;;;;;;;;;5010921;28;20190;-79
2023/01/03 14:04:01;;;;;;;10.00;4.60;;;;;;;;;;5028507;28;20190;-79
2023/01/03 14:06:46;;;;;;;10.97;4.77;;;;;;;;;;5011280;28;20240;-79
2023/01/03 14:09:30;;;;;;;10.10;4.90;;;;;;;;;;5013681;28;20373;-79
2023/01/03 14:12:09;;;;;;;10.73;4.67;;;;;;;;;;5030323;28;20185;-82
2023/01/03 14:14:37;;;;;;;9.47;4.77;;;;;;;;;;5035150;28;20206;-79
2023/01/03 14:17:04;;;;;;;12.67;6.47;;;;;;;;;;5040565;28;20186;-79
2023/01/03 14:19:31;;;;;;;10.20;5.80;;;;;;;;;;5039080;28;20186;-80
2023/01/03 14:21:57;;;;;;;11.17;6.00;;;;;;;;;;5037409;28;20542;-79
2023/01/03 14:24:26;;;;;;;11.53;6.57;;;;;;;;;;5034501;28;20282;-80
2023/01/03 14:26:52;;;;;;;9.33;5.20;;;;;;;;;;5029194;28;20243;-80
2023/01/03 14:29:20;;;;;;;12.37;6.23;;;;;;;;;;5029458;28;20183;-78
2023/01/03 14:31:47;;;;;;;11.80;5.37;;;;;;;;;;5027304;28;20614;-81
2023/01/03 14:34:17;;;;;;;15.97;8.03;;;;;;;;;;5019742;28;20210;-78
2023/01/03 14:36:47;;;;;;;13.20;6.03;;;;;;;;;;5027191;28;20198;-81
2023/01/03 14:39:21;;;;;;;12.30;6.80;;;;;;;;;;5027976;28;20186;-80
2023/01/03 14:41:47;;;;;;;10.93;5.90;;;;;;;;;;5029927;28;20189;-80
2023/01/03 14:44:15;;;;;;;10.20;6.70;;;;;;;;;;5029769;28;20181;-79
2023/01/03 14:46:48;;;;;;;10.13;6.93;;;;;;;;;;5028579;28;20197;-79
2023/01/03 14:49:19;;;;;;;11.53;6.50;;;;;;;;;;5028124;28;20178;-78
2023/01/03 14:51:46;;;;;;;16.40;9.10;;;;;;;;;;5028715;28;20194;-82
2023/01/03 14:54:15;;;;;;;11.77;7.27;;;;;;;;;;5027682;28;20241;-79
2023/01/03 14:56:44;;;;;;;10.93;6.80;;;;;;;;;;5028368;28;20171;-80
2023/01/03 14:59:10;;;;;;;9.77;6.43;;;;;;;;;;5029194;28;20181;-81
2023/01/03 15:01:36;;;;;;;11.03;6.43;;;;;;;;;;5027883;28;20186;-81
2023/01/03 15:04:04;;;;;;;11.97;7.10;;;;;;;;;;5028458;28;20207;-80
2023/01/03 15:06:32;;;;;;;13.33;6.27;;;;;;;;;;5030270;28;20190;-79
2023/01/03 15:09:01;;;;;;;13.07;6.50;;;;;;;;;;5029537;28;20178;-80
2023/01/03 15:11:29;;;;;;;12.20;7.27;;;;;;;;;;5028361;28;20170;-78
2023/01/03 15:14:03;;;;;;;13.87;7.93;;;;;;;;;;5029368;28;20211;-79
2023/01/03 15:16:29;;;;;;;14.17;8.47;;;;;;;;;;5027478;28;20592;-79
2023/01/03 15:19:01;;;;;;;17.10;8.57;;;;;;;;;;5027526;28;20201;-80
2023/01/03 15:21:27;;;;;;;15.83;9.50;;;;;;;;;;5027998;28;20180;-78
2023/01/03 15:23:54;;;;;;;15.90;9.37;;;;;;;;;;5027676;28;20186;-80
2023/01/03 15:26:25;;;;;;;16.33;9.60;;;;;;;;;;5051740;28;20265;-79
2023/01/03 15:29:09;;;;;;;13.77;10.57;;;;;;;;;;5028621;28;20300;-81
2023/01/03 15:31:36;;;;;;;23.63;15.33;;;;;;;;;;5028981;28;20670;-80
2023/01/03 15:34:12;;;;;;;25.10;17.80;;;;;;;;;;5027310;28;20671;-79
2023/01/03 15:36:38;;;;;;;16.83;10.57;;;;;;;;;;5025568;28;20198;-80
2023/01/03 15:39:18;;;;;;;13.77;8.90;;;;;;;;;;5027256;28;20193;-80
2023/01/03 15:44:30;;;;;;;17.90;10.97;;;;;;;;;;5026653;28;20193;-77
2023/01/03 15:46:58;;;;;;;15.37;9.73;;;;;;;;;;5026741;28;20647;-78
2023/01/03 15:49:24;;;;;;;19.43;10.77;;;;;;;;;;5027208;28;20175;-78
2023/01/03 15:51:50;;;;;;;16.03;9.30;;;;;;;;;;5026627;28;20209;-78